createdAt,value
2019-06-08T00:00:50.748Z,90.92
2019-06-08T00:03:20.700Z,91.85
2019-06-08T00:05:46.629Z,92.01
2019-06-08T00:08:16.768Z,92.33
2019-06-08T00:10:42.919Z,92.79
2019-06-08T00:13:08.789Z,93.80
2019-06-08T00:15:34.583Z,93.43
2019-06-08T00:18:03.335Z,94.15
2019-06-08T00:20:29.161Z,94.98
2019-06-08T00:23:02.586Z,94.23
2019-06-08T00:25:28.437Z,94.02
2019-06-08T00:27:54.547Z,93.45
2019-06-08T00:30:21.179Z,92.34
2019-06-08T00:32:47.010Z,93.31
2019-06-08T00:35:14.481Z,92.65
2019-06-08T00:37:40.359Z,92.16
2019-06-08T00:40:06.452Z,92.86
2019-06-08T00:42:32.289Z,92.92
2019-06-08T00:45:01.229Z,92.23
2019-06-08T00:47:44.954Z,93.09
2019-06-08T00:49:54.792Z,94.07
2019-06-08T00:52:21.063Z,94.32
2019-06-08T00:54:49.952Z,94.79
2019-06-08T00:57:15.779Z,95.51
2019-06-08T00:59:44.491Z,95.27
2019-06-08T01:02:10.317Z,94.74
2019-06-08T01:04:36.120Z,94.87
2019-06-08T01:07:02.020Z,94.98
2019-06-08T01:09:27.850Z,94.87
2019-06-08T01:11:56.698Z,93.34
2019-06-08T01:14:22.951Z,93.44
2019-06-08T01:16:51.598Z,93.54
2019-06-08T01:19:19.089Z,93.56
2019-06-08T01:21:44.986Z,94.52
2019-06-08T01:24:10.805Z,94.27
2019-06-08T01:26:40.332Z,95.22
2019-06-08T01:29:06.571Z,95.50
2019-06-08T01:31:35.134Z,95.18
2019-06-08T01:34:00.954Z,95.73
2019-06-08T01:36:29.576Z,95.32
2019-06-08T01:38:55.390Z,95.69
2019-06-08T01:41:21.371Z,96.28
2019-06-08T01:43:47.219Z,96.47
2019-06-08T01:46:13.025Z,97.00
2019-06-08T01:48:42.014Z,98.00
2019-06-08T01:51:07.942Z,98.03
2019-06-08T01:53:36.497Z,97.36
2019-06-08T01:56:02.304Z,96.47
2019-06-08T01:58:31.447Z,95.85
2019-06-08T02:00:57.361Z,92.17
2019-06-08T02:03:26.393Z,92.00
2019-06-08T02:05:52.511Z,91.26
2019-06-08T02:08:21.097Z,92.31
2019-06-08T02:10:46.896Z,93.33
2019-06-08T02:13:15.763Z,92.38
2019-06-08T02:15:41.943Z,93.83
2019-06-08T02:18:07.876Z,94.60
2019-06-08T02:20:35.205Z,92.34
2019-06-08T02:23:01.122Z,92.08
2019-06-08T02:25:27.337Z,92.41
2019-06-08T02:27:53.926Z,91.33
2019-06-08T02:30:30.581Z,90.60
2019-06-08T02:32:57.848Z,90.69
2019-06-08T02:35:23.684Z,92.06
2019-06-08T02:37:49.766Z,92.70
2019-06-08T02:40:15.908Z,92.30
2019-06-08T02:42:41.725Z,93.77
2019-06-08T02:45:07.703Z,92.79
2019-06-08T02:47:34.491Z,92.79
2019-06-08T02:50:00.308Z,92.79
2019-06-08T02:52:27.323Z,92.85
2019-06-08T02:54:54.458Z,91.76
2019-06-08T02:57:22.017Z,92.19
2019-06-08T02:59:48.215Z,92.62
2019-06-08T03:02:16.016Z,92.26
2019-06-08T03:04:41.820Z,92.98
2019-06-08T03:07:08.512Z,93.29
2019-06-08T03:09:36.503Z,93.40
2019-06-08T03:12:03.085Z,92.99
2019-06-08T03:14:31.046Z,92.17
2019-06-08T03:16:57.000Z,91.63
2019-06-08T03:19:23.238Z,92.33
2019-06-08T03:21:52.130Z,92.49
2019-06-08T03:24:17.980Z,93.36
2019-06-08T03:26:46.807Z,93.47
2019-06-08T03:29:12.641Z,94.79
2019-06-08T03:31:46.467Z,94.37
2019-06-08T03:34:06.152Z,94.42
2019-06-08T03:36:34.938Z,94.80
2019-06-08T03:38:59.772Z,95.49
2019-06-08T03:41:25.572Z,95.57
2019-06-08T03:43:51.673Z,94.18
2019-06-08T03:46:17.493Z,95.36
2019-06-08T03:48:46.573Z,95.61
2019-06-08T03:51:12.456Z,94.41
2019-06-08T03:53:44.401Z,92.76
2019-06-08T03:56:10.253Z,93.83
2019-06-08T03:58:37.102Z,94.23
2019-06-08T04:01:04.025Z,92.11
2019-06-08T04:03:31.219Z,92.76
2019-06-08T04:05:57.056Z,93.58
2019-06-08T04:08:22.887Z,91.87
2019-06-08T04:10:50.241Z,91.49
2019-06-08T04:13:16.179Z,91.84
2019-06-08T04:15:42.631Z,90.88
2019-06-08T04:18:09.696Z,90.88
2019-06-08T04:20:40.064Z,90.83
2019-06-08T04:23:06.319Z,88.63
2019-06-08T04:25:32.428Z,85.82
2019-06-08T04:27:58.214Z,84.86
2019-06-08T04:30:29.218Z,83.96
2019-06-08T04:32:55.297Z,84.03
2019-06-08T04:35:21.354Z,83.76
2019-06-08T04:37:47.216Z,83.47
2019-06-08T04:40:16.400Z,82.24
2019-06-08T04:42:44.418Z,81.67
2019-06-08T04:45:10.357Z,82.25
2019-06-08T04:47:36.376Z,82.48
2019-06-08T04:50:21.942Z,82.59
2019-06-08T04:52:34.302Z,80.60
2019-06-08T04:55:00.134Z,80.48
2019-06-08T04:57:26.175Z,80.50
2019-06-08T04:59:52.282Z,78.81
2019-06-08T05:02:18.357Z,79.08
2019-06-08T05:04:45.331Z,79.26
2019-06-08T05:07:12.334Z,78.22
2019-06-08T05:09:39.066Z,75.77
2019-06-08T05:12:08.107Z,74.30
2019-06-08T05:14:33.965Z,73.67
2019-06-08T05:17:03.109Z,74.17
2019-06-08T05:19:29.230Z,72.59
2019-06-08T05:21:55.054Z,70.44
2019-06-08T05:24:21.076Z,70.34
2019-06-08T05:26:47.378Z,71.43
2019-06-08T05:29:13.504Z,70.88
2019-06-08T05:31:39.442Z,70.00
2019-06-08T05:34:08.297Z,68.78
2019-06-08T05:36:34.142Z,69.07
2019-06-08T05:39:05.538Z,68.70
2019-06-08T05:41:31.615Z,69.97
2019-06-08T05:43:57.416Z,69.12
2019-06-08T05:46:23.218Z,68.91
2019-06-08T05:48:51.012Z,70.11
2019-06-08T05:51:16.942Z,70.20
2019-06-08T05:53:50.285Z,70.72
2019-06-08T05:56:16.215Z,70.71
2019-06-08T05:58:42.015Z,71.59
2019-06-08T06:01:07.822Z,71.00
2019-06-08T06:03:33.632Z,70.42
2019-06-08T06:05:59.703Z,70.77
2019-06-08T06:08:25.753Z,70.17
2019-06-08T06:10:54.456Z,70.33
2019-06-08T06:13:20.283Z,69.96
2019-06-08T06:15:49.100Z,68.18
2019-06-08T06:18:14.904Z,68.24
2019-06-08T06:20:45.268Z,67.16
2019-06-08T06:23:11.200Z,67.58
2019-06-08T06:25:37.291Z,67.02
2019-06-08T06:28:06.300Z,66.22
2019-06-08T06:30:32.636Z,65.26
2019-06-08T06:32:58.727Z,65.45
2019-06-08T06:35:24.539Z,65.78
2019-06-08T06:37:50.365Z,65.35
2019-06-08T06:40:16.172Z,64.78
2019-06-08T06:42:45.950Z,65.05
2019-06-08T06:45:12.147Z,62.53
2019-06-08T06:47:37.957Z,64.50
2019-06-08T06:50:04.672Z,63.59
2019-06-08T06:52:33.232Z,63.83
2019-06-08T06:54:59.309Z,64.44
2019-06-08T06:57:28.132Z,63.45
2019-06-08T06:59:54.235Z,64.17
2019-06-08T07:02:23.219Z,65.67
2019-06-08T07:04:49.952Z,64.17
2019-06-08T07:07:18.843Z,63.41
2019-06-08T07:09:44.637Z,61.32
2019-06-08T07:12:10.710Z,61.94
2019-06-08T07:14:36.535Z,56.72
2019-06-08T07:17:02.818Z,55.15
2019-06-08T07:19:28.633Z,54.19
2019-06-08T07:21:54.800Z,53.02
2019-06-08T07:24:23.415Z,52.68
2019-06-08T07:26:50.430Z,51.96
2019-06-08T07:29:19.371Z,52.09
2019-06-08T07:31:45.197Z,51.65
2019-06-08T07:34:12.601Z,51.32
2019-06-08T07:36:38.724Z,50.39
2019-06-08T07:39:07.831Z,50.08
2019-06-08T07:41:33.794Z,50.68
2019-06-08T07:44:02.842Z,50.39
2019-06-08T07:46:30.663Z,50.51
2019-06-08T07:49:01.704Z,49.30
2019-06-08T07:51:27.809Z,49.65
2019-06-08T07:53:53.648Z,48.67
2019-06-08T07:56:21.600Z,48.68
2019-06-08T07:58:49.547Z,47.72
2019-06-08T08:01:15.153Z,46.68
2019-06-08T08:03:40.956Z,47.49
2019-06-08T08:06:06.991Z,48.15
2019-06-08T08:08:32.792Z,47.98
2019-06-08T08:10:58.846Z,46.68
2019-06-08T08:13:24.683Z,45.93
2019-06-08T08:15:55.045Z,46.21
2019-06-08T08:18:21.597Z,46.52
2019-06-08T08:20:49.340Z,47.06
2019-06-08T08:23:17.286Z,45.80
2019-06-08T08:25:42.998Z,44.98
2019-06-08T08:28:09.107Z,45.96
2019-06-08T08:30:37.539Z,44.80
2019-06-08T08:33:03.600Z,44.70
2019-06-08T08:35:29.650Z,46.82
2019-06-08T08:38:00.483Z,43.97
2019-06-08T08:40:23.567Z,44.02
2019-06-08T08:42:50.586Z,45.19
2019-06-08T08:45:18.295Z,44.04
2019-06-08T08:47:44.207Z,44.59
2019-06-08T08:50:10.220Z,45.17
2019-06-08T08:52:40.924Z,44.01
2019-06-08T08:55:08.350Z,42.54
2019-06-08T08:57:34.713Z,42.54
2019-06-08T09:00:03.494Z,43.85
2019-06-08T09:02:28.290Z,44.14
2019-06-08T09:04:55.247Z,44.14
2019-06-08T09:07:21.168Z,43.95
2019-06-08T09:09:48.214Z,44.64
2019-06-08T09:12:14.369Z,43.17
2019-06-08T09:14:41.587Z,41.39
2019-06-08T09:17:08.720Z,42.21
2019-06-08T09:19:34.758Z,42.21
2019-06-08T09:22:02.723Z,41.96
2019-06-08T09:24:28.926Z,42.50
2019-06-08T09:26:56.753Z,42.50
2019-06-08T09:29:24.246Z,42.46
2019-06-08T09:31:50.092Z,41.88
2019-06-08T09:34:19.647Z,41.88
2019-06-08T09:36:47.795Z,40.97
2019-06-08T09:39:13.821Z,41.68
2019-06-08T09:41:39.805Z,42.08
2019-06-08T09:44:10.617Z,42.18
2019-06-08T09:46:33.632Z,40.37
2019-06-08T09:49:04.758Z,40.37
2019-06-08T09:51:28.567Z,40.25
2019-06-08T09:53:55.897Z,41.27
2019-06-08T09:56:22.623Z,41.27
2019-06-08T09:58:51.351Z,41.13
2019-06-08T10:01:18.294Z,41.00
2019-06-08T10:03:43.855Z,40.18
2019-06-08T10:06:12.450Z,39.25
2019-06-08T10:08:38.816Z,39.55
2019-06-08T10:11:06.041Z,40.93
2019-06-08T10:13:32.593Z,39.45
2019-06-08T10:16:01.758Z,39.03
2019-06-08T10:18:28.340Z,38.82
2019-06-08T10:20:54.754Z,39.21
2019-06-08T10:23:30.740Z,39.21
2019-06-08T10:25:48.359Z,37.74
2019-06-08T10:28:18.527Z,38.89
2019-06-08T10:30:41.916Z,36.95
2019-06-08T10:33:10.087Z,36.62
2019-06-08T10:35:38.095Z,38.33
2019-06-08T10:38:07.967Z,37.48
2019-06-08T10:40:31.800Z,37.64
2019-06-08T10:43:00.704Z,38.64
2019-06-08T10:45:25.455Z,37.06
2019-06-08T10:47:51.238Z,37.63
2019-06-08T10:50:19.230Z,37.30
2019-06-08T10:52:45.270Z,36.48
2019-06-08T10:55:12.210Z,36.53
2019-06-08T10:57:38.335Z,37.43
2019-06-08T11:00:18.048Z,36.70
2019-06-08T11:02:37.583Z,36.39
2019-06-08T11:05:10.014Z,36.07
2019-06-08T11:07:33.366Z,36.11
2019-06-08T11:10:00.253Z,35.90
2019-06-08T11:12:28.314Z,35.95
2019-06-08T11:14:54.253Z,36.37
2019-06-08T11:17:20.324Z,36.64
2019-06-08T11:19:48.011Z,36.78
2019-06-08T11:22:15.007Z,36.69
2019-06-08T11:24:41.425Z,35.78
2019-06-08T11:27:10.602Z,36.85
2019-06-08T11:29:34.960Z,36.70
2019-06-08T11:32:02.042Z,36.74
2019-06-08T11:34:28.741Z,36.73
2019-06-08T11:36:54.645Z,37.43
2019-06-08T11:39:20.459Z,36.23
2019-06-08T11:41:48.386Z,35.46
2019-06-08T11:44:14.960Z,34.59
2019-06-08T11:46:42.694Z,35.28
2019-06-08T11:49:14.351Z,34.05
2019-06-08T11:51:37.874Z,34.08
2019-06-08T11:54:05.046Z,35.69
2019-06-08T11:56:32.216Z,36.97
2019-06-08T11:59:01.083Z,35.59
2019-06-08T12:01:27.714Z,35.34
2019-06-08T12:03:53.905Z,35.99
2019-06-08T12:06:23.365Z,34.54
2019-06-08T12:08:47.918Z,35.60
2019-06-08T12:11:18.125Z,34.21
2019-06-08T12:13:41.602Z,33.89
2019-06-08T12:16:11.639Z,35.38
2019-06-08T12:18:35.211Z,34.35
2019-06-08T12:21:01.586Z,34.06
2019-06-08T12:23:27.710Z,34.65
2019-06-08T12:25:53.492Z,33.99
2019-06-08T12:28:19.578Z,34.32
2019-06-08T12:30:47.684Z,36.24
2019-06-08T12:33:15.307Z,34.44
2019-06-08T12:35:41.254Z,35.15
2019-06-08T12:38:09.579Z,34.87
2019-06-08T12:40:35.001Z,33.87
2019-06-08T12:43:00.809Z,32.06
2019-06-08T12:45:27.623Z,33.00
2019-06-08T12:47:53.529Z,33.33
2019-06-08T12:50:20.077Z,33.45
2019-06-08T12:52:47.636Z,33.72
2019-06-08T12:55:19.424Z,34.45
2019-06-08T12:57:41.642Z,34.24
2019-06-08T13:00:09.756Z,34.93
2019-06-08T13:02:38.255Z,32.62
2019-06-08T13:05:04.895Z,33.57
2019-06-08T13:07:30.950Z,35.90
2019-06-08T13:09:58.321Z,37.25
2019-06-08T13:12:24.530Z,35.54
2019-06-08T13:14:50.669Z,33.75
2019-06-08T13:17:19.302Z,35.93
2019-06-08T13:19:44.375Z,34.33
2019-06-08T13:22:10.783Z,34.72
2019-06-08T13:24:37.636Z,35.76
2019-06-08T13:27:03.916Z,34.89
2019-06-08T13:29:30.001Z,33.98
2019-06-08T13:31:58.612Z,33.39
2019-06-08T13:34:24.600Z,33.51
2019-06-08T13:36:53.208Z,32.76
2019-06-08T13:39:21.227Z,33.50
2019-06-08T13:41:48.214Z,33.44
2019-06-08T13:44:14.101Z,33.57
2019-06-08T13:46:41.715Z,32.68
2019-06-08T13:49:08.289Z,32.62
2019-06-08T13:51:38.405Z,32.84
2019-06-08T13:54:04.472Z,33.27
2019-06-08T13:56:30.292Z,32.98
2019-06-08T13:58:56.129Z,32.82
2019-06-08T14:01:22.212Z,32.52
2019-06-08T14:03:50.035Z,32.92
2019-06-08T14:06:18.279Z,33.08
2019-06-08T14:08:44.187Z,33.56
2019-06-08T14:11:10.009Z,33.39
2019-06-08T14:13:38.074Z,32.81
2019-06-08T14:16:04.033Z,32.96
2019-06-08T14:18:34.320Z,32.60
2019-06-08T14:21:00.324Z,31.95
2019-06-08T14:23:26.127Z,31.96
2019-06-08T14:25:56.750Z,31.85
2019-06-08T14:28:22.898Z,32.87
2019-06-08T14:30:48.852Z,32.48
2019-06-08T14:33:14.965Z,33.38
2019-06-08T14:35:41.073Z,33.10
2019-06-08T14:38:07.122Z,31.94
2019-06-08T14:40:33.263Z,30.53
2019-06-08T14:42:59.274Z,30.34
2019-06-08T14:45:30.852Z,31.64
2019-06-08T14:47:56.030Z,31.77
2019-06-08T14:50:22.932Z,30.86
2019-06-08T14:52:50.435Z,30.67
2019-06-08T14:55:19.811Z,30.65
2019-06-08T14:57:44.034Z,32.09
2019-06-08T15:00:14.728Z,33.14
2019-06-08T15:02:40.529Z,31.64
2019-06-08T15:05:07.871Z,31.84
2019-06-08T15:07:34.060Z,32.57
2019-06-08T15:09:59.877Z,32.62
2019-06-08T15:12:28.055Z,33.10
2019-06-08T15:14:53.351Z,33.02
2019-06-08T15:17:19.512Z,34.20
2019-06-08T15:19:47.401Z,32.83
2019-06-08T15:22:13.102Z,33.11
2019-06-08T15:24:38.920Z,33.38
2019-06-08T15:27:08.134Z,33.92
2019-06-08T15:29:33.973Z,33.97
2019-06-08T15:32:03.339Z,33.56
2019-06-08T15:34:31.156Z,34.01
2019-06-08T15:36:57.549Z,33.83
2019-06-08T15:39:23.802Z,33.83
2019-06-08T15:41:53.004Z,33.08
2019-06-08T15:44:21.423Z,33.53
2019-06-08T15:46:52.592Z,34.06
2019-06-08T15:49:18.699Z,33.82
2019-06-08T15:51:44.584Z,32.69
2019-06-08T15:54:10.391Z,34.06
2019-06-08T15:56:48.141Z,34.51
2019-06-08T15:59:03.928Z,34.74
2019-06-08T16:01:29.749Z,33.36
2019-06-08T16:03:55.609Z,34.03
2019-06-08T16:06:21.734Z,33.98
2019-06-08T16:08:47.582Z,35.05
2019-06-08T16:11:13.391Z,35.04
2019-06-08T16:13:43.251Z,34.84
2019-06-08T16:16:09.075Z,33.87
2019-06-08T16:18:37.634Z,34.03
2019-06-08T16:21:03.548Z,34.74
2019-06-08T16:23:29.972Z,34.42
2019-06-08T16:25:56.118Z,35.56
2019-06-08T16:28:21.922Z,35.87
2019-06-08T16:30:49.089Z,35.71
2019-06-08T16:33:14.911Z,35.30
2019-06-08T16:35:42.751Z,35.81
2019-06-08T16:38:08.567Z,36.01
2019-06-08T16:40:41.405Z,36.29
2019-06-08T16:43:07.212Z,36.89
2019-06-08T16:45:33.385Z,36.34
2019-06-08T16:47:59.501Z,35.99
2019-06-08T16:50:28.578Z,36.68
2019-06-08T16:52:54.461Z,37.45
2019-06-08T16:55:23.221Z,38.07
2019-06-08T16:57:49.280Z,37.66
2019-06-08T17:00:30.846Z,38.35
2019-06-08T17:02:46.632Z,38.64
2019-06-08T17:05:12.814Z,38.92
2019-06-08T17:07:39.755Z,39.11
2019-06-08T17:10:06.287Z,39.88
2019-06-08T17:12:32.832Z,40.42
2019-06-08T17:14:58.688Z,40.35
2019-06-08T17:17:24.804Z,40.63
2019-06-08T17:19:50.597Z,40.73
2019-06-08T17:22:19.477Z,41.34
2019-06-08T17:24:45.523Z,41.95
2019-06-08T17:27:26.350Z,42.28
2019-06-08T17:29:41.876Z,42.62
2019-06-08T17:32:07.704Z,41.80
2019-06-08T17:34:34.931Z,42.55
2019-06-08T17:37:01.262Z,42.50
2019-06-08T17:39:29.488Z,42.64
2019-06-08T17:41:55.465Z,42.49
2019-06-08T17:44:21.520Z,42.74
2019-06-08T17:46:47.346Z,43.58
2019-06-08T17:49:14.579Z,44.02
2019-06-08T17:51:41.852Z,43.74
2019-06-08T17:54:08.956Z,44.18
2019-06-08T17:56:35.467Z,44.06
2019-06-08T17:59:04.381Z,45.08
2019-06-08T18:01:37.708Z,44.77
2019-06-08T18:04:02.461Z,45.00
2019-06-08T18:06:28.507Z,45.23
2019-06-08T18:08:54.336Z,45.67
2019-06-08T18:11:20.170Z,45.71
2019-06-08T18:13:48.376Z,45.89
2019-06-08T18:16:14.003Z,46.20
2019-06-08T18:18:41.866Z,46.36
2019-06-08T18:21:08.133Z,46.72
2019-06-08T18:23:34.362Z,46.91
2019-06-08T18:26:00.197Z,46.50
2019-06-08T18:28:27.867Z,46.99
2019-06-08T18:30:53.820Z,47.20
2019-06-08T18:33:19.885Z,47.71
2019-06-08T18:35:49.669Z,47.98
2019-06-08T18:38:17.785Z,48.48
2019-06-08T18:40:43.483Z,48.47
2019-06-08T18:43:09.390Z,48.77
2019-06-08T18:45:41.483Z,49.23
2019-06-08T18:48:07.190Z,49.01
2019-06-08T18:50:33.290Z,49.46
2019-06-08T18:52:59.360Z,49.78
2019-06-08T18:55:27.532Z,49.50
2019-06-08T18:57:53.178Z,49.67
2019-06-08T19:00:22.800Z,50.18
2019-06-08T19:02:50.058Z,50.48
2019-06-08T19:05:20.825Z,50.80
2019-06-08T19:07:45.441Z,51.26
2019-06-08T19:10:15.833Z,51.54
2019-06-08T19:12:42.874Z,52.08
2019-06-08T19:15:11.441Z,52.96
2019-06-08T19:17:45.784Z,53.31
2019-06-08T19:20:05.017Z,53.30
2019-06-08T19:22:30.841Z,54.15
2019-06-08T19:24:56.621Z,54.90
2019-06-08T19:27:22.724Z,54.39
2019-06-08T19:29:51.414Z,54.55
2019-06-08T19:32:17.076Z,55.22
2019-06-08T19:34:43.930Z,55.50
2019-06-08T19:37:11.330Z,55.40
2019-06-08T19:39:39.619Z,55.12
2019-06-08T19:42:04.929Z,55.00
2019-06-08T19:44:30.737Z,55.08
2019-06-08T19:46:57.467Z,55.61
2019-06-08T19:49:23.401Z,55.95
2019-06-08T19:51:53.802Z,56.02
2019-06-08T19:54:18.234Z,56.29
2019-06-08T19:56:47.713Z,57.34
2019-06-08T19:59:12.054Z,58.12
2019-06-08T20:01:37.991Z,58.12
2019-06-08T20:04:03.863Z,58.81
2019-06-08T20:06:29.679Z,59.06
2019-06-08T20:08:57.498Z,59.56
2019-06-08T20:11:23.258Z,59.88
2019-06-08T20:13:50.416Z,59.94
2019-06-08T20:16:17.424Z,59.92
2019-06-08T20:18:43.632Z,60.09
2019-06-08T20:21:11.902Z,60.42
2019-06-08T20:23:38.234Z,60.42
2019-06-08T20:26:04.333Z,61.19
2019-06-08T20:28:30.149Z,61.26
2019-06-08T20:31:01.036Z,60.92
2019-06-08T20:33:27.311Z,61.12
2019-06-08T20:35:54.314Z,61.08
2019-06-08T20:38:34.001Z,60.66
2019-06-08T20:40:48.140Z,61.56
2019-06-08T20:43:14.020Z,61.94
2019-06-08T20:45:39.854Z,61.97
2019-06-08T20:48:06.035Z,61.85
2019-06-08T20:50:31.855Z,62.03
2019-06-08T20:53:00.477Z,62.27
2019-06-08T20:55:28.224Z,62.73
2019-06-08T20:57:57.615Z,62.80
2019-06-08T21:00:23.604Z,62.76
2019-06-08T21:02:51.496Z,63.31
2019-06-08T21:05:18.249Z,63.54
2019-06-08T21:07:45.453Z,63.90
2019-06-08T21:10:12.423Z,63.50
2019-06-08T21:12:41.408Z,63.66
2019-06-08T21:15:07.469Z,63.18
2019-06-08T21:17:33.284Z,63.83
2019-06-08T21:19:59.072Z,64.22
2019-06-08T21:22:24.903Z,63.95
2019-06-08T21:24:53.670Z,63.99
2019-06-08T21:27:18.669Z,64.04
2019-06-08T21:29:55.437Z,63.86
2019-06-08T21:32:17.587Z,64.29
2019-06-08T21:34:42.920Z,64.29
2019-06-08T21:37:09.157Z,66.33
2019-06-08T21:39:38.556Z,68.29
2019-06-08T21:42:03.492Z,69.65
2019-06-08T21:44:30.879Z,71.30
2019-06-08T21:46:59.889Z,70.73
2019-06-08T21:49:24.620Z,70.35
2019-06-08T21:51:51.930Z,69.70
2019-06-08T21:54:18.129Z,69.37
2019-06-08T21:56:44.169Z,69.22
2019-06-08T21:59:10.016Z,69.23
2019-06-08T22:01:37.671Z,68.73
2019-06-08T22:04:04.024Z,68.98
2019-06-08T22:06:32.907Z,69.19
2019-06-08T22:09:01.225Z,68.91
2019-06-08T22:11:26.739Z,68.86
2019-06-08T22:13:52.811Z,68.65
2019-06-08T22:16:21.766Z,68.63
2019-06-08T22:18:47.618Z,68.66
2019-06-08T22:21:18.111Z,68.64
2019-06-08T22:23:43.857Z,67.76
2019-06-08T22:26:10.024Z,68.12
2019-06-08T22:28:37.728Z,67.64
2019-06-08T22:31:03.883Z,68.01
2019-06-08T22:33:29.713Z,67.85
2019-06-08T22:35:58.572Z,68.27
2019-06-08T22:38:23.502Z,68.87
2019-06-08T22:40:49.335Z,68.75
2019-06-08T22:43:20.406Z,68.98
2019-06-08T22:45:47.942Z,69.43
2019-06-08T22:48:13.680Z,69.88
2019-06-08T22:50:39.507Z,70.46
2019-06-08T22:53:08.323Z,70.50
2019-06-08T22:55:34.125Z,70.46
2019-06-08T22:58:03.040Z,70.34
2019-06-08T23:00:29.470Z,70.24
2019-06-08T23:02:56.758Z,70.67
2019-06-08T23:05:22.969Z,70.64
2019-06-08T23:07:48.943Z,70.23
2019-06-08T23:10:17.379Z,70.31
2019-06-08T23:12:43.009Z,70.50
2019-06-08T23:15:09.113Z,70.53
2019-06-08T23:17:34.932Z,70.33
2019-06-08T23:20:06.197Z,71.18
2019-06-08T23:22:32.681Z,71.42
2019-06-08T23:25:01.096Z,71.74
2019-06-08T23:27:27.195Z,71.74
2019-06-08T23:29:53.000Z,72.30
2019-06-08T23:32:19.102Z,72.46
2019-06-08T23:34:47.783Z,72.70
2019-06-08T23:37:14.198Z,72.53
2019-06-08T23:39:40.419Z,72.57
2019-06-08T23:42:06.255Z,73.29
2019-06-08T23:44:32.088Z,73.79
2019-06-08T23:46:59.755Z,73.72
2019-06-08T23:49:27.819Z,74.00
2019-06-08T23:51:53.597Z,73.60
2019-06-08T23:54:19.700Z,73.56
2019-06-08T23:56:48.260Z,73.86
2019-06-08T23:59:14.065Z,73.71
